createdAt,value
2023-03-11T00:00:50.679Z,36.06
2023-03-11T00:01:50.692Z,35.74
2023-03-11T00:04:50.613Z,36.30
2023-03-11T00:05:50.589Z,36.11
2023-03-11T00:06:50.606Z,36.04
2023-03-11T00:11:52.375Z,37.04
2023-03-11T00:12:52.185Z,37.29
2023-03-11T00:13:52.336Z,37.78
2023-03-11T00:22:51.523Z,39.07
2023-03-11T00:23:51.572Z,38.65
2023-03-11T00:24:51.343Z,38.59
2023-03-11T00:25:51.293Z,38.60
2023-03-11T00:26:51.273Z,38.92
2023-03-11T01:24:46.162Z,37.33
2023-03-11T01:51:42.023Z,35.11
2023-03-11T01:52:41.744Z,35.12
2023-03-11T01:54:41.719Z,35.30
2023-03-11T01:55:41.666Z,35.24
2023-03-11T02:18:41.784Z,37.64
2023-03-11T02:19:41.592Z,37.44
2023-03-11T02:20:41.746Z,37.31
2023-03-11T02:21:41.537Z,37.22
2023-03-11T02:22:41.514Z,37.45
2023-03-11T02:23:41.458Z,37.83
2023-03-11T03:09:22.119Z,38.13
2023-03-11T03:16:21.359Z,38.81
2023-03-11T03:17:21.427Z,38.42
2023-03-11T03:18:21.131Z,38.29
2023-03-11T03:19:21.150Z,37.99
2023-03-11T03:20:21.135Z,38.08
2023-03-11T03:21:21.141Z,37.90
2023-03-11T03:22:21.148Z,37.73
2023-03-11T03:23:21.084Z,37.80
2023-03-11T03:25:41.405Z,37.90
2023-03-11T03:26:41.201Z,37.82
2023-03-11T03:27:41.383Z,38.32
2023-03-11T03:28:41.155Z,38.22
2023-03-11T03:29:41.085Z,38.37
2023-03-11T03:30:41.140Z,38.47
2023-03-11T03:31:41.115Z,38.58
2023-03-11T03:32:41.201Z,38.62
2023-03-11T03:33:41.163Z,38.66
2023-03-11T03:34:41.067Z,38.77
2023-03-11T03:35:41.069Z,38.94
2023-03-11T03:36:41.073Z,38.75
2023-03-11T03:37:41.084Z,38.96
2023-03-11T03:38:41.052Z,38.67
2023-03-11T03:42:20.949Z,40.17
2023-03-11T03:44:40.515Z,39.91
2023-03-11T03:45:40.551Z,39.34
2023-03-11T03:56:16.257Z,39.67
2023-03-11T03:57:16.264Z,39.62
2023-03-11T03:58:15.964Z,39.46
2023-03-11T04:00:35.824Z,39.41
2023-03-11T04:01:35.815Z,39.00
2023-03-11T04:02:35.710Z,38.55
2023-03-11T04:03:35.615Z,38.48
2023-03-11T04:04:35.584Z,38.29
2023-03-11T04:05:35.594Z,38.63
2023-03-11T04:06:35.609Z,38.44
2023-03-11T04:07:35.604Z,38.55
2023-03-11T04:08:35.562Z,38.73
2023-03-11T04:09:35.567Z,38.41
2023-03-11T04:10:35.582Z,38.32
2023-03-11T04:11:35.581Z,38.38
2023-03-11T04:12:35.538Z,38.39
2023-03-11T04:13:35.553Z,38.44
2023-03-11T04:14:35.513Z,38.22
2023-03-11T04:15:35.506Z,37.72
2023-03-11T04:16:35.535Z,37.91
2023-03-11T04:17:35.533Z,38.13
2023-03-11T04:18:35.471Z,38.13
2023-03-11T04:19:35.485Z,37.60
2023-03-11T04:20:35.492Z,37.02
2023-03-11T04:22:35.462Z,36.90
2023-03-11T04:23:35.476Z,37.35
2023-03-11T04:24:35.476Z,37.47
2023-03-11T04:25:35.424Z,37.44
2023-03-11T04:26:35.419Z,36.99
2023-03-11T04:27:35.429Z,37.23
2023-03-11T04:28:35.395Z,37.43
2023-03-11T04:29:35.413Z,37.97
2023-03-11T04:30:35.409Z,37.86
2023-03-11T04:31:35.445Z,37.99
2023-03-11T04:32:35.434Z,37.38
2023-03-11T04:33:35.415Z,37.56
2023-03-11T04:34:35.374Z,37.40
2023-03-11T04:36:55.546Z,38.16
2023-03-11T04:37:55.762Z,38.07
2023-03-11T04:38:55.477Z,38.05
2023-03-11T04:39:55.465Z,38.15
2023-03-11T04:40:55.454Z,38.18
2023-03-11T04:41:55.443Z,37.79
2023-03-11T04:42:55.459Z,37.72
2023-03-11T04:43:55.424Z,37.66
2023-03-11T04:44:55.418Z,37.92
2023-03-11T04:47:15.739Z,38.00
2023-03-11T04:48:15.539Z,37.83
2023-03-11T04:49:15.755Z,37.34
2023-03-11T04:50:15.495Z,37.44
2023-03-11T04:51:15.446Z,37.48
2023-03-11T04:52:15.514Z,37.26
2023-03-11T04:57:13.638Z,38.92
2023-03-11T05:05:54.125Z,37.41
2023-03-11T05:08:14.016Z,37.24
2023-03-11T05:09:13.962Z,37.29
2023-03-11T05:10:13.776Z,37.17
2023-03-11T05:11:13.712Z,36.97
2023-03-11T05:12:13.738Z,36.93
2023-03-11T05:13:13.711Z,36.91
2023-03-11T05:14:13.730Z,36.84
2023-03-11T05:15:13.697Z,37.04
2023-03-11T05:16:13.711Z,36.96
2023-03-11T05:17:13.697Z,36.65
2023-03-11T05:31:33.751Z,36.81
2023-03-11T05:33:53.656Z,37.56
2023-03-11T05:34:53.908Z,37.18
2023-03-11T05:36:08.964Z,37.09
2023-03-11T05:36:53.466Z,38.00
2023-03-11T05:37:53.761Z,37.68
2023-03-11T05:38:53.427Z,37.55
2023-03-11T05:39:53.484Z,37.42
2023-03-11T05:40:56.117Z,37.29
2023-03-11T05:47:33.753Z,37.32
2023-03-11T05:49:53.854Z,37.66
2023-03-11T05:50:53.633Z,37.14
2023-03-11T05:51:54.039Z,37.40
2023-03-11T05:52:53.603Z,37.32
2023-03-11T05:53:53.585Z,37.28
2023-03-11T05:54:53.591Z,37.19
2023-03-11T05:55:53.565Z,37.08
2023-03-11T05:58:14.017Z,37.70
2023-03-11T05:59:16.268Z,37.80
2023-03-11T06:01:13.648Z,37.22
2023-03-11T06:02:13.611Z,37.34
2023-03-11T06:03:13.613Z,37.31
2023-03-11T06:04:13.764Z,37.34
2023-03-11T06:05:14.120Z,37.61
2023-03-11T06:06:13.589Z,37.64
2023-03-11T06:07:13.583Z,37.16
2023-03-11T06:08:13.532Z,37.30
2023-03-11T06:09:13.557Z,37.25
2023-03-11T06:10:13.626Z,37.17
2023-03-11T06:11:13.573Z,37.11
2023-03-11T06:12:13.582Z,36.95
2023-03-11T06:13:13.532Z,36.76
2023-03-11T06:14:13.537Z,36.69
2023-03-11T06:15:13.604Z,36.77
2023-03-11T06:16:13.567Z,37.01
2023-03-11T06:17:13.538Z,37.03
2023-03-11T06:18:13.571Z,36.40
2023-03-11T06:19:13.504Z,36.24
2023-03-11T06:20:13.521Z,36.43
2023-03-11T06:21:13.492Z,36.55
2023-03-11T06:22:13.492Z,36.40
2023-03-11T06:23:13.489Z,36.15
2023-03-11T06:24:13.507Z,35.98
2023-03-11T06:25:13.458Z,36.16
2023-03-11T06:26:13.476Z,36.75
2023-03-11T06:27:13.469Z,36.81
2023-03-11T06:28:13.438Z,37.08
2023-03-11T06:29:13.436Z,36.65
2023-03-11T06:30:13.445Z,36.42
2023-03-11T06:31:13.465Z,36.61
2023-03-11T06:32:13.533Z,36.22
2023-03-11T06:34:13.494Z,36.27
2023-03-11T06:35:13.726Z,35.95
2023-03-11T06:38:53.552Z,36.87
2023-03-11T06:39:53.195Z,36.44
2023-03-11T06:40:53.398Z,36.09
2023-03-11T06:41:53.089Z,36.59
2023-03-11T06:42:53.116Z,36.28
2023-03-11T06:43:53.122Z,36.31
2023-03-11T06:44:53.085Z,36.90
2023-03-11T06:45:53.082Z,36.06
2023-03-11T06:46:53.899Z,36.04
2023-03-11T06:47:53.088Z,36.44
2023-03-11T06:48:53.026Z,36.15
2023-03-11T06:49:53.053Z,36.28
2023-03-11T06:50:53.047Z,36.04
2023-03-11T06:51:53.059Z,36.01
2023-03-11T06:52:52.997Z,36.23
2023-03-11T06:53:53.028Z,36.38
2023-03-11T06:54:53.032Z,36.45
2023-03-11T06:55:52.980Z,36.21
2023-03-11T06:56:52.982Z,36.27
2023-03-11T06:57:53.019Z,36.33
2023-03-11T06:58:52.977Z,36.21
2023-03-11T06:59:52.977Z,36.16
2023-03-11T07:00:53.026Z,36.26
2023-03-11T07:01:52.986Z,35.87
2023-03-11T07:02:52.928Z,35.83
2023-03-11T07:03:53.070Z,35.76
2023-03-11T07:04:52.934Z,35.96
2023-03-11T07:05:52.951Z,35.87
2023-03-11T07:06:52.909Z,35.64
2023-03-11T07:07:52.942Z,35.86
2023-03-11T07:08:52.939Z,35.62
2023-03-11T07:09:52.883Z,35.58
2023-03-11T07:10:52.982Z,36.12
2023-03-11T07:11:53.125Z,36.05
2023-03-11T07:18:52.088Z,36.60
2023-03-11T07:19:51.991Z,36.12
2023-03-11T07:20:51.954Z,36.01
2023-03-11T07:57:26.648Z,38.26
2023-03-11T07:59:25.994Z,37.17
2023-03-11T08:00:25.974Z,36.97
2023-03-11T08:01:25.962Z,36.97
2023-03-11T08:02:25.933Z,37.31
2023-03-11T08:03:25.979Z,36.93
2023-03-11T08:04:25.988Z,37.03
2023-03-11T08:05:25.933Z,36.74
2023-03-11T08:06:25.909Z,36.51
2023-03-11T08:07:25.928Z,36.74
2023-03-11T08:08:25.924Z,36.64
2023-03-11T08:09:25.923Z,36.26
2023-03-11T08:10:25.872Z,35.84
2023-03-11T08:11:25.874Z,35.57
2023-03-11T08:12:25.876Z,35.95
2023-03-11T08:17:25.103Z,35.95
2023-03-11T08:19:44.945Z,36.31
2023-03-11T08:20:44.970Z,36.00
2023-03-11T08:21:44.741Z,35.81
2023-03-11T08:22:57.236Z,35.65
2023-03-11T08:23:45.705Z,35.61
2023-03-11T08:24:44.673Z,35.41
2023-03-11T08:25:44.683Z,35.58
2023-03-11T08:26:44.669Z,35.65
2023-03-11T08:27:44.666Z,35.81
2023-03-11T08:28:44.686Z,35.78
2023-03-11T08:29:44.634Z,35.65
2023-03-11T08:30:44.706Z,35.80
2023-03-11T08:31:44.643Z,35.60
2023-03-11T08:32:44.724Z,35.67
2023-03-11T08:33:44.638Z,36.00
2023-03-11T08:34:44.679Z,35.60
2023-03-11T08:35:44.609Z,35.48
2023-03-11T08:36:44.591Z,35.52
2023-03-11T08:37:44.662Z,35.15
2023-03-11T08:38:44.645Z,34.87
2023-03-11T08:39:44.624Z,35.17
2023-03-11T08:40:44.653Z,35.09
2023-03-11T08:41:44.694Z,34.93
2023-03-11T08:50:24.885Z,33.54
2023-03-11T08:51:24.669Z,33.30
2023-03-11T08:52:24.901Z,32.61
2023-03-11T08:53:24.594Z,33.36
2023-03-11T08:54:24.592Z,32.87
2023-03-11T08:55:24.581Z,33.33
2023-03-11T08:56:24.554Z,33.57
2023-03-11T08:57:24.529Z,34.06
2023-03-11T08:58:24.550Z,33.48
2023-03-11T08:59:24.560Z,33.64
2023-03-11T09:00:24.514Z,33.60
2023-03-11T09:01:24.526Z,33.22
2023-03-11T09:02:24.574Z,33.11
2023-03-11T09:03:24.553Z,32.63
2023-03-11T09:04:24.487Z,32.26
2023-03-11T09:05:24.506Z,32.10
2023-03-11T09:06:24.505Z,32.11
2023-03-11T09:07:24.531Z,32.06
2023-03-11T09:08:24.513Z,32.09
2023-03-11T09:09:24.518Z,32.04
2023-03-11T09:10:24.486Z,32.59
2023-03-11T09:11:24.506Z,32.49
2023-03-11T09:12:24.540Z,32.22
2023-03-11T09:13:24.437Z,32.24
2023-03-11T09:14:24.415Z,32.44
2023-03-11T09:15:24.491Z,32.58
2023-03-11T09:16:24.494Z,32.33
2023-03-11T09:17:24.425Z,31.56
2023-03-11T09:18:24.442Z,32.15
2023-03-11T09:19:24.435Z,32.08
2023-03-11T09:20:24.413Z,32.15
2023-03-11T09:21:24.422Z,31.86
2023-03-11T09:22:24.395Z,32.07
2023-03-11T09:23:24.422Z,31.82
2023-03-11T09:24:24.364Z,31.78
2023-03-11T09:25:24.385Z,32.00
2023-03-11T09:26:24.389Z,32.14
2023-03-11T09:27:24.335Z,31.94
2023-03-11T09:28:24.354Z,31.66
2023-03-11T09:29:24.345Z,31.70
2023-03-11T09:30:24.352Z,31.15
2023-03-11T09:31:24.344Z,31.03
2023-03-11T09:32:24.315Z,31.42
2023-03-11T09:33:24.330Z,30.61
2023-03-11T09:34:24.353Z,30.30
2023-03-11T09:35:24.320Z,29.68
2023-03-11T09:36:24.299Z,29.94
2023-03-11T09:37:24.276Z,30.07
2023-03-11T09:38:24.276Z,30.51
2023-03-11T09:39:24.277Z,29.90
2023-03-11T09:40:24.345Z,29.84
2023-03-11T09:41:24.300Z,30.56
2023-03-11T09:43:24.411Z,29.52
2023-03-11T09:44:24.666Z,29.45
2023-03-11T09:45:24.324Z,29.32
2023-03-11T09:46:24.557Z,29.34
2023-03-11T09:47:24.320Z,29.89
2023-03-11T09:48:24.309Z,29.26
2023-03-11T09:49:25.389Z,29.75
2023-03-11T09:50:24.310Z,29.31
2023-03-11T09:51:24.380Z,29.60
2023-03-11T09:53:24.268Z,30.42
2023-03-11T09:54:24.432Z,30.10
2023-03-11T09:55:24.213Z,30.14
2023-03-11T09:56:24.229Z,29.98
2023-03-11T09:57:24.527Z,30.21
2023-03-11T09:58:24.177Z,29.77
2023-03-11T09:59:24.140Z,29.76
2023-03-11T10:00:24.140Z,30.07
2023-03-11T10:01:24.167Z,29.60
2023-03-11T10:02:24.247Z,28.64
2023-03-11T10:03:24.158Z,29.11
2023-03-11T10:04:24.136Z,28.60
2023-03-11T10:05:24.070Z,28.93
2023-03-11T10:06:24.126Z,28.40
2023-03-11T10:07:24.098Z,28.60
2023-03-11T10:08:24.112Z,27.92
2023-03-11T10:09:24.050Z,27.75
2023-03-11T10:10:24.087Z,27.83
2023-03-11T10:11:24.046Z,28.16
2023-03-11T10:14:02.731Z,28.75
2023-03-11T10:15:02.621Z,26.95
2023-03-11T10:16:02.763Z,26.87
2023-03-11T10:17:02.497Z,26.33
2023-03-11T10:18:02.498Z,25.30
2023-03-11T10:19:02.513Z,24.52
2023-03-11T10:20:02.524Z,24.61
2023-03-11T10:21:02.483Z,24.88
2023-03-11T10:22:02.472Z,25.12
2023-03-11T10:23:02.502Z,24.52
2023-03-11T10:24:02.576Z,23.99
2023-03-11T10:26:48.599Z,24.07
2023-03-11T10:27:48.390Z,23.48
2023-03-11T10:30:07.832Z,22.65
2023-03-11T10:31:07.757Z,22.00
2023-03-11T10:32:07.678Z,22.11
2023-03-11T10:33:07.672Z,22.26
2023-03-11T10:34:07.692Z,22.41
2023-03-11T10:35:07.661Z,21.67
2023-03-11T10:36:07.660Z,22.04
2023-03-11T10:39:07.589Z,22.68
2023-03-11T10:40:07.561Z,22.08
2023-03-11T10:41:07.618Z,22.19
2023-03-11T10:42:07.570Z,21.68
2023-03-11T10:43:07.587Z,21.54
2023-03-11T10:45:07.557Z,22.45
2023-03-11T10:46:07.606Z,22.13
2023-03-11T10:47:07.564Z,21.76
2023-03-11T10:48:07.617Z,22.36
2023-03-11T10:49:07.520Z,22.65
2023-03-11T10:50:07.528Z,22.56
2023-03-11T10:51:07.542Z,22.53
2023-03-11T10:52:07.520Z,22.56
2023-03-11T10:53:07.553Z,21.68
2023-03-11T10:56:07.501Z,21.96
2023-03-11T10:57:07.477Z,22.48
2023-03-11T10:58:07.524Z,22.57
2023-03-11T10:59:07.499Z,21.99
2023-03-11T12:40:19.787Z,21.44
2023-03-11T12:50:59.402Z,21.39
2023-03-11T12:51:59.222Z,21.09
2023-03-11T12:52:58.925Z,21.27
2023-03-11T13:01:38.187Z,22.05
2023-03-11T13:02:37.988Z,22.10
2023-03-11T13:03:37.859Z,22.46
2023-03-11T13:04:37.870Z,21.55
2023-03-11T13:05:37.881Z,21.92
2023-03-11T13:06:37.840Z,22.42
2023-03-11T13:07:37.861Z,22.79
2023-03-11T13:08:37.835Z,21.54
2023-03-11T13:09:37.824Z,21.07
2023-03-11T13:10:37.854Z,21.03
2023-03-11T13:11:37.847Z,21.08
2023-03-11T13:12:37.829Z,21.23
2023-03-11T13:13:37.806Z,20.63
2023-03-11T13:14:37.969Z,20.77
2023-03-11T13:15:38.012Z,21.56
2023-03-11T13:16:38.879Z,21.66
2023-03-11T13:17:37.806Z,21.64
2023-03-11T13:18:37.845Z,21.42
2023-03-11T13:19:37.818Z,21.31
2023-03-11T13:20:37.828Z,21.46
2023-03-11T13:21:37.806Z,21.55
2023-03-11T13:22:37.826Z,21.28
2023-03-11T13:23:37.842Z,21.43
2023-03-11T13:24:38.061Z,21.61
2023-03-11T13:25:37.978Z,21.50
2023-03-11T13:27:57.753Z,22.44
2023-03-11T13:37:37.576Z,21.81
2023-03-11T13:38:37.361Z,21.42
2023-03-11T13:39:37.042Z,22.18
2023-03-11T13:40:37.452Z,22.86
2023-03-11T13:41:37.554Z,22.51
2023-03-11T13:42:36.988Z,22.07
2023-03-11T13:43:37.597Z,22.20
2023-03-11T13:44:36.975Z,21.99
2023-03-11T13:45:37.013Z,22.34
2023-03-11T13:46:36.978Z,23.86
2023-03-11T13:47:36.982Z,22.72
2023-03-11T13:48:37.620Z,22.57
2023-03-11T13:49:36.933Z,22.32
2023-03-11T13:50:36.940Z,22.88
2023-03-11T13:51:36.965Z,23.40
2023-03-11T13:52:36.914Z,22.49
2023-03-11T13:53:36.915Z,22.70
2023-03-11T13:54:36.961Z,23.33
2023-03-11T13:55:36.956Z,23.74
2023-03-11T13:56:36.873Z,22.93
2023-03-11T13:57:36.897Z,22.92
2023-03-11T13:58:36.888Z,23.31
2023-03-11T13:59:36.857Z,23.57
2023-03-11T14:01:56.467Z,24.28
2023-03-11T14:02:56.349Z,24.40
2023-03-11T14:05:16.577Z,23.67
2023-03-11T14:07:35.664Z,24.36
2023-03-11T14:08:35.633Z,24.59
2023-03-11T14:10:35.233Z,24.51
2023-03-11T14:11:35.314Z,24.88
2023-03-11T14:12:35.210Z,24.80
2023-03-11T14:13:35.353Z,24.69
2023-03-11T14:14:35.223Z,24.79
2023-03-11T14:15:35.169Z,25.06
2023-03-11T14:16:35.287Z,25.04
2023-03-11T14:17:35.185Z,25.14
2023-03-11T14:18:35.198Z,24.79
2023-03-11T14:19:35.210Z,24.99
2023-03-11T14:20:35.180Z,25.39
2023-03-11T14:21:35.220Z,25.21
2023-03-11T14:22:35.138Z,25.50
2023-03-11T14:23:35.127Z,26.20
2023-03-11T14:24:35.121Z,25.76
2023-03-11T14:25:35.112Z,26.03
2023-03-11T14:26:35.198Z,25.83
2023-03-11T14:27:35.118Z,25.87
2023-03-11T14:28:35.109Z,25.76
2023-03-11T14:29:35.141Z,25.86
2023-03-11T14:30:35.129Z,25.69
2023-03-11T14:31:35.167Z,25.81
2023-03-11T14:32:35.148Z,25.83
2023-03-11T14:33:35.093Z,26.02
2023-03-11T14:34:35.098Z,26.48
2023-03-11T14:35:35.059Z,27.12
2023-03-11T14:36:35.056Z,26.97
2023-03-11T14:37:35.067Z,26.39
2023-03-11T14:38:35.022Z,26.53
2023-03-11T14:39:35.037Z,26.54
2023-03-11T14:40:35.033Z,26.60
2023-03-11T14:41:35.041Z,27.06
2023-03-11T14:42:35.018Z,27.08
2023-03-11T14:43:35.001Z,26.85
2023-03-11T14:45:55.190Z,27.37
2023-03-11T14:46:54.952Z,26.95
2023-03-11T14:47:55.088Z,26.92
2023-03-11T14:48:54.875Z,27.11
2023-03-11T14:49:54.874Z,27.28
2023-03-11T14:52:15.137Z,27.56
2023-03-11T14:53:14.959Z,28.02
2023-03-11T14:55:34.835Z,28.78
2023-03-11T14:57:34.872Z,28.28
2023-03-11T14:58:34.732Z,28.12
2023-03-11T14:59:34.669Z,28.14
2023-03-11T15:00:34.665Z,28.85
2023-03-11T15:01:34.750Z,28.47
2023-03-11T15:02:34.639Z,28.63
2023-03-11T15:03:34.653Z,28.27
2023-03-11T15:04:34.653Z,28.11
2023-03-11T15:05:34.596Z,28.57
2023-03-11T15:06:34.645Z,28.32
2023-03-11T15:07:34.712Z,28.55
2023-03-11T15:08:34.612Z,28.68
2023-03-11T15:09:34.619Z,28.53
2023-03-11T15:10:34.591Z,28.56
2023-03-11T15:11:34.589Z,28.74
2023-03-11T15:31:15.000Z,32.12
2023-03-11T15:32:14.736Z,32.00
2023-03-11T15:33:14.820Z,32.06
2023-03-11T15:34:14.617Z,32.18
2023-03-11T15:35:14.627Z,32.31
2023-03-11T15:36:14.599Z,32.22
2023-03-11T15:37:14.598Z,32.44
2023-03-11T15:38:14.560Z,32.34
2023-03-11T15:39:14.625Z,32.15
2023-03-11T15:40:14.573Z,32.12
2023-03-11T15:41:14.571Z,32.28
2023-03-11T15:42:14.598Z,31.94
2023-03-11T15:43:14.549Z,32.50
2023-03-11T15:44:14.589Z,32.08
2023-03-11T15:45:14.557Z,31.75
2023-03-11T15:56:54.033Z,33.74
2023-03-11T16:08:30.085Z,35.26
2023-03-11T16:12:07.710Z,35.18
2023-03-11T16:13:07.408Z,34.78
2023-03-11T16:14:07.696Z,34.62
2023-03-11T16:15:07.412Z,34.26
2023-03-11T16:16:07.428Z,34.19
2023-03-11T16:17:07.454Z,34.23
2023-03-11T16:18:07.469Z,34.16
2023-03-11T16:19:07.444Z,34.31
2023-03-11T16:20:07.543Z,34.34
2023-03-11T16:36:07.694Z,34.87
2023-03-11T16:38:28.458Z,35.16
2023-03-11T16:39:28.181Z,35.01
2023-03-11T16:40:28.279Z,35.29
2023-03-11T16:52:06.754Z,35.99
2023-03-11T16:53:06.619Z,35.34
2023-03-11T16:54:06.203Z,35.35
2023-03-11T16:55:06.342Z,35.64
2023-03-11T16:56:06.537Z,35.14
2023-03-11T16:57:06.368Z,35.11
2023-03-11T16:58:06.851Z,34.99
2023-03-11T16:59:06.203Z,35.15
2023-03-11T17:00:06.161Z,35.59
2023-03-11T17:01:06.309Z,35.18
2023-03-11T17:02:06.218Z,35.00
2023-03-11T17:03:06.143Z,34.99
2023-03-11T17:04:06.103Z,34.67
2023-03-11T17:05:06.177Z,34.90
2023-03-11T17:06:06.145Z,34.79
2023-03-11T17:07:06.088Z,34.81
2023-03-11T17:08:06.119Z,35.13
2023-03-11T17:09:06.159Z,35.15
2023-03-11T17:10:06.122Z,34.97
2023-03-11T17:11:06.115Z,34.93
2023-03-11T17:12:06.138Z,35.35
2023-03-11T17:13:06.081Z,35.31
2023-03-11T17:14:15.867Z,35.26
2023-03-11T17:15:07.060Z,35.29
2023-03-11T17:16:06.050Z,35.27
2023-03-11T17:17:06.071Z,35.48
2023-03-11T17:18:06.006Z,35.51
2023-03-11T17:19:06.048Z,35.27
2023-03-11T17:20:06.036Z,35.18
2023-03-11T17:21:06.036Z,35.25
2023-03-11T17:22:06.022Z,35.21
2023-03-11T17:23:06.008Z,34.90
2023-03-11T17:24:06.010Z,34.88
2023-03-11T17:25:06.016Z,35.03
2023-03-11T17:26:06.268Z,35.08
2023-03-11T17:27:06.030Z,35.29
2023-03-11T17:28:06.109Z,35.21
2023-03-11T17:29:06.098Z,35.43
2023-03-11T17:30:06.196Z,35.56
2023-03-11T17:31:06.178Z,35.62
2023-03-11T17:32:06.175Z,35.17
2023-03-11T17:33:06.237Z,35.17
2023-03-11T17:34:06.236Z,35.55
2023-03-11T17:35:06.296Z,35.30
2023-03-11T17:36:06.292Z,35.35
2023-03-11T17:37:06.296Z,34.96
2023-03-11T17:38:06.311Z,34.95
2023-03-11T17:39:06.369Z,34.97
2023-03-11T17:40:06.468Z,35.17
2023-03-11T17:41:06.424Z,35.34
2023-03-11T17:42:06.412Z,35.38
2023-03-11T17:43:06.526Z,35.19
2023-03-11T17:44:06.529Z,35.09
2023-03-11T17:45:06.617Z,35.30
2023-03-11T17:46:06.556Z,34.99
2023-03-11T17:47:06.673Z,35.08
2023-03-11T17:48:06.631Z,35.03
2023-03-11T17:49:06.822Z,34.93
2023-03-11T17:50:06.771Z,35.18
2023-03-11T17:51:06.782Z,34.70
2023-03-11T17:52:06.772Z,34.48
2023-03-11T17:53:06.848Z,34.55
2023-03-11T17:54:06.793Z,34.83
2023-03-11T17:55:06.977Z,35.03
2023-03-11T17:56:06.952Z,34.90
2023-03-11T17:57:07.005Z,35.30
2023-03-11T17:58:06.998Z,35.19
2023-03-11T17:59:07.052Z,34.81
2023-03-11T18:00:07.139Z,34.71
2023-03-11T18:01:07.200Z,34.71
2023-03-11T18:02:07.208Z,34.37
2023-03-11T18:03:07.186Z,34.39
2023-03-11T18:04:07.264Z,34.64
2023-03-11T18:05:07.313Z,34.80
2023-03-11T18:06:07.356Z,34.34
2023-03-11T18:07:07.372Z,34.47
2023-03-11T18:08:07.379Z,34.44
2023-03-11T18:09:07.412Z,34.78
2023-03-11T18:10:07.498Z,35.00
2023-03-11T18:11:07.507Z,34.48
2023-03-11T18:12:07.548Z,34.46
2023-03-11T18:13:07.557Z,34.43
2023-03-11T18:14:07.597Z,34.56
2023-03-11T18:15:07.661Z,34.68
2023-03-11T18:16:07.701Z,34.25
2023-03-11T18:17:07.687Z,34.05
2023-03-11T18:18:07.748Z,34.10
2023-03-11T18:19:07.730Z,34.64
2023-03-11T18:20:07.745Z,34.79
2023-03-11T18:21:07.811Z,34.80
2023-03-11T18:22:07.819Z,34.63
2023-03-11T18:23:07.882Z,34.41
2023-03-11T18:24:07.825Z,34.54
2023-03-11T18:25:07.844Z,34.18
2023-03-11T18:26:08.105Z,34.12
2023-03-11T18:27:07.838Z,34.08
2023-03-11T18:28:07.860Z,33.88
2023-03-11T18:29:07.904Z,33.64
2023-03-11T18:30:07.922Z,33.63
2023-03-11T18:31:07.920Z,33.91
2023-03-11T18:32:08.068Z,34.28
2023-03-11T18:33:08.022Z,34.77
2023-03-11T18:34:08.018Z,35.73
2023-03-11T18:35:08.058Z,35.79
2023-03-11T18:36:08.081Z,35.79
2023-03-11T18:37:08.139Z,36.01
2023-03-11T18:38:08.161Z,36.91
2023-03-11T18:39:08.239Z,37.22
2023-03-11T18:40:24.572Z,38.26
2023-03-11T19:13:40.676Z,49.49
2023-03-11T19:15:28.196Z,49.81
2023-03-11T19:16:28.218Z,50.04
2023-03-11T19:17:28.170Z,49.85
2023-03-11T19:18:28.144Z,50.02
2023-03-11T19:31:28.030Z,50.18
2023-03-11T19:32:27.945Z,49.65
2023-03-11T19:33:44.062Z,49.76
2023-03-11T19:34:27.806Z,49.82
2023-03-11T19:35:27.968Z,49.58
2023-03-11T19:36:27.745Z,50.00
2023-03-11T19:37:27.734Z,49.64
2023-03-11T19:38:43.990Z,50.00
2023-03-11T19:39:27.779Z,49.66
2023-03-11T19:40:28.030Z,49.82
2023-03-11T19:41:27.723Z,49.45
2023-03-11T19:42:27.673Z,49.93
2023-03-11T20:02:07.867Z,50.59
2023-03-11T20:03:07.874Z,50.24
2023-03-11T20:04:07.649Z,50.64
2023-03-11T20:07:27.851Z,50.05
2023-03-11T20:08:27.757Z,50.23
2023-03-11T20:09:28.716Z,50.29
